Bangkok Bridge — 3FTZ8 — position and weather

sailwx.info

Track history (hours):
 
Tides and Currents Weather Stations Pressure Air Temp Water Temp Dewpoint Dewpoint Depression Visibility Wind Speed Wind Dir Waves Ship Positions

Bangkok Bridge

Last reported at 2017-Mar-28 12:04 UTC. Time now 2017-Mar-29 09:19 UTC.
Position S 26°40' E 153°13'.

Length 267 m; draft 10.8 m.

Type: Ship (hazmat cat A). MMSI: 353368000.

Date/timePositionNaut miles runAvg speedWind from/ knotsBaromVisibWave heightAir tempDewpointWater temp
2017-Mar-28 12:04S 26°40' E 153°13'812.6
2017-Mar-28 11:25S 26°48' E 153°12'1415.7
2017-Mar-28 10:34S 27°01' E 153°15'1514.6
2017-Mar-28 09:34S 27°15' E 153°18'9 9.3
2017-Mar-28 08:33S 27°22' E 153°11'0 0.0
2017-Mar-28 07:31S 27°22' E 153°11'0 0.0
2017-Mar-28 06:28S 27°22' E 153°11'0 0.0
2017-Mar-28 05:31S 27°22' E 153°11'0 0.0
2017-Mar-28 04:28S 27°22' E 153°11'0 0.0
2017-Mar-28 03:31S 27°22' E 153°11'0 0.0
2017-Mar-28 02:31S 27°22' E 153°11'0 0.0
2017-Mar-28 01:28S 27°22' E 153°11'0 0.0
2017-Mar-28 00:31S 27°22' E 153°11'0 0.0
2017-Mar-27 23:31S 27°22' E 153°11'0 0.0
2017-Mar-27 22:31S 27°22' E 153°11'0 0.0
2017-Mar-27 21:31S 27°22' E 153°11'0 0.0
2017-Mar-27 20:31S 27°22' E 153°11'0 0.0
2017-Mar-27 19:31S 27°22' E 153°11'0 0.0
2017-Mar-27 18:31S 27°22' E 153°11'0 0.0
2017-Mar-27 17:31S 27°22' E 153°11'0 0.0
2017-Mar-27 16:31S 27°22' E 153°11'0 0.0
2017-Mar-27 15:31S 27°22' E 153°11'0 0.0
2017-Mar-27 14:31S 27°22' E 153°11'0 0.0
2017-Mar-27 13:31S 27°22' E 153°11'0 0.0
2017-Mar-27 12:28S 27°22' E 153°11'0 0.0
2017-Mar-27 11:31S 27°22' E 153°11'0 0.0
2017-Mar-27 10:31S 27°22' E 153°11'0 0.0
2017-Mar-27 09:31S 27°22' E 153°11'0 0.0
2017-Mar-27 08:31S 27°22' E 153°11'0 0.0
2017-Mar-27 07:31S 27°22' E 153°11'0 0.0
2017-Mar-27 06:31S 27°22' E 153°11'0 0.1
2017-Mar-27 05:33S 27°22' E 153°11'8 7.6
2017-Mar-27 04:33S 27°16' E 153°16'1211.9
2017-Mar-27 03:33S 27°04' E 153°18'1616.0
2017-Mar-27 02:34S 26°51' E 153°09'8 7.7
2017-Mar-27 01:33S 26°45' E 153°15'1212.0
2017-Mar-27 00:33S 26°50' E 153°27'1 0.6
2017-Mar-26 23:31S 26°49' E 153°27'5 5.5
2017-Mar-26 22:33S 26°53' E 153°32'1212.4
2017-Mar-26 21:33S 27°04' E 153°38'2812.1
2017-Mar-26 19:16S 27°31' E 153°42'912.1
2017-Mar-26 18:33S 27°40' E 153°42'1111.4
2017-Mar-26 17:33S 27°52' E 153°42'1111.2
2017-Mar-26 16:33S 28°03' E 153°42'27412.9
2017-Mar-25 19:16S 32°30' E 152°35'1115.5
2017-Mar-25 18:34S 32°39' E 152°28'1514.9
2017-Mar-25 17:33S 32°52' E 152°19'1515.0
2017-Mar-25 16:33S 33°05' E 152°09'1515.1
2017-Mar-25 15:33S 33°17' E 151°59'  
2017-Mar-22 17:04S 37°59' E 144°55'712.7
2017-Mar-22 16:33S 37°52' E 144°55'3 0.1
2017-Mar-21 10:28S 37°49' E 144°55'3 2.7
2017-Mar-21 09:20S 37°52' E 144°55'459 9.4
2017-Mar-19 08:34S 33°06' E 152°16'2121.0
2017-Mar-19 07:33S 32°47' E 152°25'2120.7
2017-Mar-19 06:33S 32°28' E 152°36'1615.5
2017-Mar-19 05:31S 32°13' E 152°42'1313.2
2017-Mar-19 04:30S 32°01' E 152°48'  
Track history (hours):
 
Tides and Currents Weather Stations Pressure Air Temp Water Temp Dewpoint Dewpoint Depression Visibility Wind Speed Wind Dir Waves Ship Positions

Bangkok Bridge

Last reported at 2017-Mar-28 12:04 UTC. Time now 2017-Mar-29 09:19 UTC.
Position S 26°40' E 153°13'.

Length 267 m; draft 10.8 m.

Type: Ship (hazmat cat A). MMSI: 353368000.

Date/timePositionNaut miles runAvg speedWind from/ knotsBaromVisibWave heightAir tempDewpointWater temp
2017-Mar-28 12:04S 26°40' E 153°13'812.6
2017-Mar-28 11:25S 26°48' E 153°12'1415.7
2017-Mar-28 10:34S 27°01' E 153°15'1514.6
2017-Mar-28 09:34S 27°15' E 153°18'9 9.3
2017-Mar-28 08:33S 27°22' E 153°11'0 0.0
2017-Mar-28 07:31S 27°22' E 153°11'0 0.0
2017-Mar-28 06:28S 27°22' E 153°11'0 0.0
2017-Mar-28 05:31S 27°22' E 153°11'0 0.0
2017-Mar-28 04:28S 27°22' E 153°11'0 0.0
2017-Mar-28 03:31S 27°22' E 153°11'0 0.0
2017-Mar-28 02:31S 27°22' E 153°11'0 0.0
2017-Mar-28 01:28S 27°22' E 153°11'0 0.0
2017-Mar-28 00:31S 27°22' E 153°11'0 0.0
2017-Mar-27 23:31S 27°22' E 153°11'0 0.0
2017-Mar-27 22:31S 27°22' E 153°11'0 0.0
2017-Mar-27 21:31S 27°22' E 153°11'0 0.0
2017-Mar-27 20:31S 27°22' E 153°11'0 0.0
2017-Mar-27 19:31S 27°22' E 153°11'0 0.0
2017-Mar-27 18:31S 27°22' E 153°11'0 0.0
2017-Mar-27 17:31S 27°22' E 153°11'0 0.0
2017-Mar-27 16:31S 27°22' E 153°11'0 0.0
2017-Mar-27 15:31S 27°22' E 153°11'0 0.0
2017-Mar-27 14:31S 27°22' E 153°11'0 0.0
2017-Mar-27 13:31S 27°22' E 153°11'0 0.0
2017-Mar-27 12:28S 27°22' E 153°11'0 0.0
2017-Mar-27 11:31S 27°22' E 153°11'0 0.0
2017-Mar-27 10:31S 27°22' E 153°11'0 0.0
2017-Mar-27 09:31S 27°22' E 153°11'0 0.0
2017-Mar-27 08:31S 27°22' E 153°11'0 0.0
2017-Mar-27 07:31S 27°22' E 153°11'0 0.0
2017-Mar-27 06:31S 27°22' E 153°11'0 0.1
2017-Mar-27 05:33S 27°22' E 153°11'8 7.6
2017-Mar-27 04:33S 27°16' E 153°16'1211.9
2017-Mar-27 03:33S 27°04' E 153°18'1616.0
2017-Mar-27 02:34S 26°51' E 153°09'8 7.7
2017-Mar-27 01:33S 26°45' E 153°15'1212.0
2017-Mar-27 00:33S 26°50' E 153°27'1 0.6
2017-Mar-26 23:31S 26°49' E 153°27'5 5.5
2017-Mar-26 22:33S 26°53' E 153°32'1212.4
2017-Mar-26 21:33S 27°04' E 153°38'2812.1
2017-Mar-26 19:16S 27°31' E 153°42'912.1
2017-Mar-26 18:33S 27°40' E 153°42'1111.4
2017-Mar-26 17:33S 27°52' E 153°42'1111.2
2017-Mar-26 16:33S 28°03' E 153°42'27412.9
2017-Mar-25 19:16S 32°30' E 152°35'1115.5
2017-Mar-25 18:34S 32°39' E 152°28'1514.9
2017-Mar-25 17:33S 32°52' E 152°19'1515.0
2017-Mar-25 16:33S 33°05' E 152°09'1515.1
2017-Mar-25 15:33S 33°17' E 151°59'  
2017-Mar-22 17:04S 37°59' E 144°55'712.7
2017-Mar-22 16:33S 37°52' E 144°55'3 0.1
2017-Mar-21 10:28S 37°49' E 144°55'3 2.7
2017-Mar-21 09:20S 37°52' E 144°55'459 9.4
2017-Mar-19 08:34S 33°06' E 152°16'2121.0
2017-Mar-19 07:33S 32°47' E 152°25'2120.7
2017-Mar-19 06:33S 32°28' E 152°36'1615.5
2017-Mar-19 05:31S 32°13' E 152°42'1313.2
2017-Mar-19 04:30S 32°01' E 152°48'  

Dump ship's entire track history